Details for QantasLink at YMML




Go Back


Latest METAR
Local Time

YMML 241300Z 19014KT 9999 FEW021 BKN042 16/10 Q1010

25/02/2018, 00:38:40

Description
Results
QantasLink Logo
Number of Pilots based at YMML
0 Pilots Based here
Number of QantasLink Flights Departed from YMML
0 Flights Departed
Number of QantasLink Flights Arrived at YMML
0 Flights Arrived
Number of QantasLink Schedules Departing from YMML
43 Schedules
Number of QantasLink Schedules Arriving at YMML
37 Schedules
Number of QantasLink Schedules Departing from YMML availible today
19 Schedules Today
Number of QantasLink Schedules Arriving at YMML availible today
16 Schedules Today
Average Landing Rate at YMML
-240 fpm
QantasLink Average Landing Rate at YMML
0 fpm
Total Fuel Purchased at YMML by QantasLink
0.00 kgs / 0.00 lbs

Pilots Based at YMML


Pilot ID
Pilot Name
Pilot Rank
No. of Flights
No. of Flying Hours
There are no pilots assigned to this hub!   Will you be the first?
Content